ローマ/フィウミチーノ の空港の天気 - METARとTAF

ローマ・レオナルド・ダ・ビンチ国際空港 ( LIRF / FCO ) - イタリア ローマ
飛行場実況気象(Metar)
観測時間09/17 05:50 CEST (09/17 03:50 UTC)
風向・風速南 2m/s
視程10km以上
天気現象
少しの雲 雲底高度 460m
気温24℃
湿度83%
気圧1013hPa
METARLIRF 170350Z 17004KT 110V200 9999 FEW015 24/21 Q1013 NOSIG
過去の天気等 Google飛行場航空写真 Wunderground天気予報

過去48時間のMETAR

飛行場予報(TAF)
発表時間: 9/17 01:00 CEST (9/16 23:00 UTC)
予報対象時間: 17日2時 CEST ~ 18日8時 CEST
風向・風速南 6m/s
視程10km以上
全天の4割程度の雲 雲底高度 1220m
17日3時 CEST ~ 17日11時 CEST に一時的に
天気現象雷雨
17日11時 CEST ~ 17日17時 CEST に一時的に
天気現象しゅう雨
17日18時 CEST ~ 17日20時 CEST に徐々に
風向・風速不定 2m/s
TAF LIRF 162300Z 1700/1806 17012KT 9999 SCT040
TEMPO 1701/1709 TSRA
TEMPO 1709/1715 SHRA
BECMG 1716/1718 VRB04KT